createdAt,value
2023-05-24T00:00:23.805Z,14.50
2023-05-24T00:02:51.220Z,15.90
2023-05-24T00:05:19.064Z,19.17
2023-05-24T00:07:46.345Z,18.23
2023-05-24T00:10:13.522Z,16.10
2023-05-24T00:12:40.829Z,14.98
2023-05-24T00:15:08.503Z,16.10
2023-05-24T00:17:41.456Z,15.88
2023-05-24T00:20:13.639Z,17.35
2023-05-24T00:22:41.970Z,16.63
2023-05-24T00:25:09.333Z,15.10
2023-05-24T00:27:37.582Z,17.00
2023-05-24T00:30:06.450Z,15.57
2023-05-24T00:32:33.718Z,14.35
2023-05-24T00:35:00.836Z,15.15
2023-05-24T00:37:29.750Z,14.48
2023-05-24T00:39:57.102Z,16.77
2023-05-24T00:42:24.420Z,13.73
2023-05-24T00:44:51.472Z,14.55
2023-05-24T00:47:19.491Z,14.70
2023-05-24T00:49:47.032Z,11.73
2023-05-24T00:52:14.456Z,14.48
2023-05-24T00:54:42.025Z,14.95
2023-05-24T00:57:09.333Z,11.93
2023-05-24T00:59:36.836Z,11.98
2023-05-24T01:02:05.322Z,13.77
2023-05-24T01:04:33.399Z,10.57
2023-05-24T01:07:23.737Z,15.25
2023-05-24T01:10:14.625Z,12.55
2023-05-24T01:13:10.837Z,14.20
2023-05-24T01:15:50.810Z,17.25
2023-05-24T01:18:26.538Z,13.93
2023-05-24T01:21:06.916Z,15.20
2023-05-24T01:26:21.599Z,12.90
2023-05-24T01:28:49.352Z,13.75
2023-05-24T01:31:18.279Z,14.88
2023-05-24T01:33:45.579Z,14.07
2023-05-24T01:36:12.698Z,12.70
2023-05-24T01:38:41.440Z,12.15
2023-05-24T01:41:19.255Z,14.98
2023-05-24T01:43:59.985Z,14.77
2023-05-24T01:46:34.465Z,11.75
2023-05-24T01:49:26.461Z,14.43
2023-05-24T01:52:04.153Z,14.35
2023-05-24T01:54:35.095Z,13.20
2023-05-24T01:57:07.014Z,11.60
2023-05-24T01:59:36.444Z,14.05
2023-05-24T02:02:03.793Z,14.30
2023-05-24T02:04:31.572Z,16.80
2023-05-24T02:06:58.646Z,12.07
2023-05-24T02:09:25.732Z,13.05
2023-05-24T02:11:52.854Z,11.23
2023-05-24T02:14:20.751Z,12.98
2023-05-24T02:16:51.002Z,15.00
2023-05-24T02:19:19.657Z,12.40
2023-05-24T02:21:46.929Z,11.68
2023-05-24T02:24:15.168Z,13.55
2023-05-24T02:26:42.397Z,13.40
2023-05-24T02:29:09.668Z,14.68
2023-05-24T02:31:37.273Z,11.65
2023-05-24T02:34:04.459Z,10.43
2023-05-24T02:36:32.896Z,11.30
2023-05-24T02:39:00.020Z,12.77
2023-05-24T02:41:27.195Z,14.27
2023-05-24T02:43:54.502Z,10.27
2023-05-24T02:46:21.747Z,12.77
2023-05-24T02:48:49.977Z,21.75
2023-05-24T02:51:17.279Z,15.10
2023-05-24T02:53:45.608Z,14.60
2023-05-24T02:56:14.243Z,15.23
2023-05-24T02:58:41.940Z,16.23
2023-05-24T03:01:09.159Z,18.25
2023-05-24T03:03:36.735Z,19.30
2023-05-24T03:06:07.309Z,20.58
2023-05-24T03:08:35.072Z,23.25
2023-05-24T03:11:02.307Z,18.77
2023-05-24T03:13:29.663Z,19.08
2023-05-24T03:15:56.945Z,18.67
2023-05-24T03:18:24.171Z,18.40
2023-05-24T03:20:52.047Z,21.55
2023-05-24T03:23:19.251Z,20.17
2023-05-24T03:25:46.535Z,21.52
2023-05-24T03:28:15.369Z,19.30
2023-05-24T03:30:43.972Z,24.37
2023-05-24T03:33:11.368Z,16.27
2023-05-24T03:35:38.633Z,18.33
2023-05-24T03:38:06.041Z,20.75
2023-05-24T03:40:34.854Z,17.77
2023-05-24T03:45:42.501Z,18.65
2023-05-24T03:48:09.867Z,17.88
2023-05-24T03:50:37.109Z,18.77
2023-05-24T03:53:04.240Z,17.98
2023-05-24T03:55:31.554Z,18.83
2023-05-24T03:57:58.784Z,18.83
2023-05-24T04:00:26.365Z,17.73
2023-05-24T04:02:54.182Z,18.92
2023-05-24T04:05:22.504Z,19.92
2023-05-24T04:07:49.849Z,22.42
2023-05-24T04:10:19.089Z,21.15
2023-05-24T04:12:46.351Z,19.20
2023-05-24T04:15:16.479Z,19.67
2023-05-24T04:17:45.063Z,20.40
2023-05-24T04:20:13.388Z,23.58
2023-05-24T04:22:41.076Z,18.63
2023-05-24T04:25:10.316Z,20.92
2023-05-24T04:27:37.679Z,19.90
2023-05-24T04:30:05.889Z,19.70
2023-05-24T04:32:33.098Z,19.08
2023-05-24T04:35:03.086Z,22.60
2023-05-24T04:37:32.073Z,20.48
2023-05-24T04:39:59.299Z,21.30
2023-05-24T04:42:27.658Z,18.50
2023-05-24T04:44:54.797Z,17.15
2023-05-24T04:47:21.983Z,20.58
2023-05-24T04:49:49.556Z,19.48
2023-05-24T04:52:17.502Z,19.98
2023-05-24T04:54:44.954Z,17.75
2023-05-24T04:57:12.132Z,20.50
2023-05-24T04:59:39.226Z,17.63
2023-05-24T05:02:06.488Z,21.02
2023-05-24T05:04:33.784Z,19.42
2023-05-24T05:07:01.085Z,20.55
2023-05-24T05:09:28.515Z,18.52
2023-05-24T05:11:55.874Z,17.73
2023-05-24T05:14:23.053Z,21.17
2023-05-24T05:16:50.370Z,20.23
2023-05-24T05:19:17.579Z,17.90
2023-05-24T05:21:44.825Z,20.60
2023-05-24T05:24:12.129Z,16.17
2023-05-24T05:26:39.334Z,17.80
2023-05-24T05:29:06.636Z,15.88
2023-05-24T05:31:33.898Z,16.80
2023-05-24T05:34:01.162Z,17.98
2023-05-24T05:36:28.403Z,21.27
2023-05-24T05:38:55.631Z,15.38
2023-05-24T05:41:22.781Z,18.23
2023-05-24T05:43:49.935Z,15.63
2023-05-24T05:46:17.225Z,16.05
2023-05-24T05:48:46.316Z,15.32
2023-05-24T05:51:14.229Z,17.30
2023-05-24T05:53:41.435Z,17.17
2023-05-24T05:56:08.593Z,15.18
2023-05-24T05:58:35.915Z,17.85
2023-05-24T06:01:03.129Z,16.58
2023-05-24T06:03:30.447Z,13.15
2023-05-24T06:05:57.711Z,15.10
2023-05-24T06:08:24.850Z,15.93
2023-05-24T06:10:53.123Z,13.60
2023-05-24T06:13:20.375Z,15.98
2023-05-24T06:15:47.716Z,15.38
2023-05-24T06:18:15.748Z,14.05
2023-05-24T06:20:45.299Z,13.25
2023-05-24T06:23:13.010Z,12.95
2023-05-24T06:25:40.776Z,12.90
2023-05-24T06:28:07.939Z,15.82
2023-05-24T06:30:35.369Z,11.70
2023-05-24T06:33:02.841Z,12.07
2023-05-24T06:35:30.058Z,11.88
2023-05-24T06:37:58.172Z,12.85
2023-05-24T06:40:25.362Z,11.90
2023-05-24T06:42:52.510Z,11.18
2023-05-24T06:45:19.677Z,12.70
2023-05-24T06:47:47.303Z,10.95
2023-05-24T06:50:14.712Z,12.48
2023-05-24T06:52:42.024Z,11.88
2023-05-24T06:55:09.988Z,11.60
2023-05-24T06:57:37.087Z,10.13
2023-05-24T07:00:10.155Z,10.07
2023-05-24T07:02:37.448Z,8.98
2023-05-24T07:05:05.453Z,8.93
2023-05-24T07:07:32.805Z,9.30
2023-05-24T07:09:59.899Z,9.88
2023-05-24T07:12:27.131Z,9.02
2023-05-24T07:14:58.618Z,9.93
2023-05-24T07:17:25.840Z,7.53
2023-05-24T07:19:53.093Z,7.68
2023-05-24T07:22:20.321Z,8.32
2023-05-24T07:24:47.469Z,8.50
2023-05-24T07:27:14.567Z,7.90
2023-05-24T07:29:42.002Z,7.57
2023-05-24T07:32:09.258Z,9.18
2023-05-24T07:34:36.469Z,8.27
2023-05-24T07:37:03.703Z,9.07
2023-05-24T07:39:30.887Z,8.50
2023-05-24T07:41:58.188Z,7.70
2023-05-24T07:44:25.346Z,7.88
2023-05-24T07:46:52.664Z,8.82
2023-05-24T07:49:19.832Z,8.43
2023-05-24T07:51:47.010Z,8.45
2023-05-24T07:54:14.203Z,7.22
2023-05-24T07:56:42.987Z,8.07
2023-05-24T07:59:10.256Z,10.10
2023-05-24T08:01:38.176Z,9.43
2023-05-24T08:04:05.685Z,8.70
2023-05-24T08:06:35.847Z,7.95
2023-05-24T08:09:04.675Z,11.10
2023-05-24T08:11:31.782Z,9.55
2023-05-24T08:13:58.907Z,8.20
2023-05-24T08:16:26.312Z,8.70
2023-05-24T08:18:55.092Z,8.02
2023-05-24T08:21:22.794Z,7.82
2023-05-24T08:23:49.957Z,8.20
2023-05-24T08:26:19.417Z,7.55
2023-05-24T08:28:46.749Z,7.37
2023-05-24T08:31:14.021Z,7.10
2023-05-24T08:33:41.544Z,7.40
2023-05-24T08:36:08.918Z,8.85
2023-05-24T08:38:36.390Z,8.35
2023-05-24T08:41:07.636Z,9.70
2023-05-24T08:43:35.594Z,8.23
2023-05-24T08:46:04.152Z,7.57
2023-05-24T08:48:31.842Z,9.07
2023-05-24T08:50:59.659Z,10.63
2023-05-24T08:53:27.623Z,11.77
2023-05-24T08:55:56.357Z,10.98
2023-05-24T08:58:23.682Z,10.10
2023-05-24T09:00:50.948Z,8.65
2023-05-24T09:03:18.989Z,11.63
2023-05-24T09:05:46.529Z,8.32
2023-05-24T09:08:18.311Z,9.90
2023-05-24T09:13:20.411Z,10.00
2023-05-24T09:15:47.603Z,10.98
2023-05-24T09:18:14.971Z,9.55
2023-05-24T09:20:42.320Z,11.10
2023-05-24T09:23:11.074Z,7.93
2023-05-24T09:25:44.671Z,9.60
2023-05-24T09:28:15.036Z,9.52
2023-05-24T09:30:47.073Z,9.13
2023-05-24T09:33:14.292Z,9.98
2023-05-24T09:35:44.788Z,9.15
2023-05-24T09:40:48.290Z,8.77
2023-05-24T09:43:15.473Z,7.95
2023-05-24T09:45:47.317Z,9.85
2023-05-24T09:48:20.521Z,8.88
2023-05-24T09:51:01.485Z,11.20
2023-05-24T09:53:28.938Z,10.20
2023-05-24T09:55:56.349Z,8.85
2023-05-24T09:58:23.594Z,9.43
2023-05-24T10:00:51.248Z,9.75
2023-05-24T10:03:18.441Z,10.13
2023-05-24T10:05:47.105Z,10.48
2023-05-24T10:08:14.771Z,11.18
2023-05-24T10:10:42.720Z,10.05
2023-05-24T10:13:10.713Z,10.27
2023-05-24T10:15:38.758Z,9.20
2023-05-24T10:18:10.643Z,9.07
2023-05-24T10:20:41.976Z,9.63
2023-05-24T10:23:11.368Z,10.20
2023-05-24T10:25:42.286Z,9.68
2023-05-24T10:28:13.068Z,9.00
2023-05-24T10:31:02.720Z,10.10
2023-05-24T10:33:32.872Z,8.45
2023-05-24T10:36:00.166Z,9.60
2023-05-24T10:38:27.364Z,9.35
2023-05-24T10:40:54.484Z,9.02
2023-05-24T10:43:22.370Z,8.98
2023-05-24T10:45:50.864Z,9.02
2023-05-24T10:48:23.899Z,11.50
2023-05-24T10:50:51.444Z,9.23
2023-05-24T10:53:20.654Z,10.98
2023-05-24T10:56:01.489Z,10.35
2023-05-24T10:58:44.026Z,10.95
2023-05-24T11:01:25.253Z,8.65
2023-05-24T11:03:52.563Z,9.55
2023-05-24T11:06:20.053Z,11.68
2023-05-24T11:08:47.218Z,10.25
2023-05-24T11:11:26.516Z,9.35
2023-05-24T11:13:58.155Z,9.57
2023-05-24T11:16:40.364Z,8.02
2023-05-24T11:19:22.344Z,8.48
2023-05-24T11:21:51.649Z,10.43
2023-05-24T11:24:20.067Z,9.18
2023-05-24T11:26:47.436Z,10.27
2023-05-24T11:29:18.092Z,9.77
2023-05-24T11:31:50.975Z,10.45
2023-05-24T11:34:19.043Z,11.02
2023-05-24T11:36:47.661Z,11.65
2023-05-24T11:39:15.369Z,15.13
2023-05-24T11:41:42.844Z,10.10
2023-05-24T11:44:11.800Z,12.10
2023-05-24T11:46:39.777Z,13.88
2023-05-24T11:49:07.316Z,11.32
2023-05-24T11:51:36.086Z,11.38
2023-05-24T11:54:04.717Z,11.70
2023-05-24T11:56:33.884Z,13.27
2023-05-24T11:59:16.158Z,12.40
2023-05-24T12:01:44.143Z,11.38
2023-05-24T12:04:12.246Z,12.98
2023-05-24T12:06:44.611Z,13.82
2023-05-24T12:09:18.263Z,13.48
2023-05-24T12:11:48.387Z,14.05
2023-05-24T12:14:18.028Z,14.70
2023-05-24T12:16:46.926Z,14.88
2023-05-24T12:19:31.623Z,14.98
2023-05-24T12:21:59.551Z,17.40
2023-05-24T12:24:27.884Z,16.30
2023-05-24T12:27:02.183Z,15.40
2023-05-24T12:29:41.720Z,14.60
2023-05-24T12:32:14.056Z,15.85
2023-05-24T12:34:45.447Z,15.90
2023-05-24T12:37:14.024Z,15.88
2023-05-24T12:39:43.881Z,17.83
2023-05-24T12:42:12.784Z,17.65
2023-05-24T12:44:40.260Z,19.35
2023-05-24T12:47:09.003Z,17.90
2023-05-24T12:49:36.994Z,18.17
2023-05-24T12:52:04.290Z,18.60
2023-05-24T12:54:31.914Z,17.60
2023-05-24T12:57:05.699Z,16.15
2023-05-24T12:59:34.180Z,18.98
2023-05-24T13:02:02.463Z,18.48
2023-05-24T13:04:31.984Z,20.00
2023-05-24T13:06:59.470Z,18.10
2023-05-24T13:09:27.283Z,20.08
2023-05-24T13:11:55.844Z,21.52
2023-05-24T13:14:23.497Z,19.92
2023-05-24T13:16:51.023Z,22.13
2023-05-24T13:19:18.896Z,22.50
2023-05-24T13:21:46.402Z,20.20
2023-05-24T13:24:16.568Z,22.30
2023-05-24T13:34:11.484Z,23.77
2023-05-24T13:36:39.563Z,22.30
2023-05-24T13:41:40.888Z,19.20
2023-05-24T13:44:08.126Z,24.17
2023-05-24T13:46:36.727Z,21.13
2023-05-24T13:49:04.741Z,23.70
2023-05-24T13:51:32.108Z,20.77
2023-05-24T13:53:59.865Z,21.15
2023-05-24T13:56:33.082Z,22.25
2023-05-24T13:59:03.004Z,19.30
2023-05-24T14:01:30.937Z,23.73
2023-05-24T14:03:58.272Z,22.13
2023-05-24T14:06:25.599Z,22.40
2023-05-24T14:08:53.626Z,29.17
2023-05-24T14:11:20.910Z,22.83
2023-05-24T14:16:19.765Z,22.10
2023-05-24T14:18:49.360Z,21.70
2023-05-24T14:21:19.110Z,21.60
2023-05-24T14:23:46.323Z,22.20
2023-05-24T14:26:13.786Z,23.00
2023-05-24T14:28:41.377Z,28.02
2023-05-24T14:31:08.740Z,24.13
2023-05-24T14:33:35.950Z,25.33
2023-05-24T14:36:03.162Z,25.63
2023-05-24T14:38:30.652Z,23.52
2023-05-24T14:40:59.070Z,21.98
2023-05-24T14:43:26.583Z,22.23
2023-05-24T14:45:53.953Z,24.65
2023-05-24T14:48:21.300Z,26.50
2023-05-24T14:50:48.681Z,22.20
2023-05-24T14:53:16.011Z,22.90
2023-05-24T14:55:44.378Z,22.73
2023-05-24T14:58:12.462Z,27.42
2023-05-24T15:00:41.020Z,22.65
2023-05-24T15:03:09.230Z,19.90
2023-05-24T15:05:37.086Z,24.15
2023-05-24T15:08:05.805Z,44.88
2023-05-24T15:10:33.646Z,21.00
2023-05-24T15:13:01.761Z,28.20
2023-05-24T15:15:29.041Z,24.85
2023-05-24T15:17:57.883Z,25.73
2023-05-24T15:20:26.014Z,23.85
2023-05-24T15:22:53.474Z,25.30
2023-05-24T15:25:21.173Z,24.67
2023-05-24T15:27:48.847Z,21.23
2023-05-24T15:30:17.753Z,23.85
2023-05-24T15:32:46.819Z,29.25
2023-05-24T15:35:14.444Z,26.55
2023-05-24T15:37:43.069Z,24.15
2023-05-24T15:40:11.248Z,26.70
2023-05-24T15:42:38.549Z,27.35
2023-05-24T15:45:07.564Z,27.55
2023-05-24T15:47:40.207Z,27.23
2023-05-24T15:50:08.724Z,25.67
2023-05-24T15:52:36.804Z,26.88
2023-05-24T15:55:04.368Z,27.10
2023-05-24T15:57:32.327Z,29.83
2023-05-24T15:59:59.614Z,29.85
2023-05-24T16:02:27.327Z,27.83
2023-05-24T16:04:55.729Z,31.23
2023-05-24T16:07:23.326Z,29.58
2023-05-24T16:09:51.143Z,25.63
2023-05-24T16:12:18.837Z,29.48
2023-05-24T16:14:46.519Z,26.55
2023-05-24T16:17:15.257Z,25.38
2023-05-24T16:19:42.561Z,24.42
2023-05-24T16:22:09.686Z,24.65
2023-05-24T16:24:36.959Z,26.95
2023-05-24T16:27:04.402Z,23.65
2023-05-24T16:29:31.651Z,22.60
2023-05-24T16:31:59.143Z,21.92
2023-05-24T16:34:26.643Z,24.35
2023-05-24T16:36:54.283Z,22.00
2023-05-24T16:39:21.757Z,19.83
2023-05-24T16:41:48.943Z,23.23
2023-05-24T16:44:19.260Z,21.92
2023-05-24T16:46:47.214Z,21.48
2023-05-24T16:49:14.604Z,22.98
2023-05-24T16:51:41.827Z,23.30
2023-05-24T16:54:09.489Z,19.35
2023-05-24T16:56:38.265Z,24.15
2023-05-24T16:59:05.779Z,21.63
2023-05-24T17:01:33.426Z,20.88
2023-05-24T17:04:00.817Z,19.63
2023-05-24T17:06:28.139Z,20.13
2023-05-24T17:08:55.675Z,17.33
2023-05-24T17:11:23.403Z,21.70
2023-05-24T17:13:51.791Z,20.27
2023-05-24T17:16:19.526Z,19.00
2023-05-24T17:18:46.855Z,19.58
2023-05-24T17:21:14.167Z,19.42
2023-05-24T17:23:41.680Z,19.40
2023-05-24T17:26:09.842Z,19.65
2023-05-24T17:28:37.382Z,20.23
2023-05-24T17:31:04.746Z,21.48
2023-05-24T17:33:32.557Z,19.73
2023-05-24T17:36:04.523Z,22.75
2023-05-24T17:38:37.687Z,20.00
2023-05-24T17:41:07.647Z,20.75
2023-05-24T17:43:35.262Z,20.73
2023-05-24T17:46:04.195Z,21.63
2023-05-24T17:48:35.501Z,23.02
2023-05-24T17:51:05.318Z,20.92
2023-05-24T17:53:35.003Z,18.92
2023-05-24T17:56:03.625Z,19.23
2023-05-24T17:58:31.174Z,23.15
2023-05-24T18:00:58.594Z,20.10
2023-05-24T18:03:25.880Z,21.70
2023-05-24T18:05:53.075Z,23.48
2023-05-24T18:08:20.392Z,23.35
2023-05-24T18:10:47.633Z,20.35
2023-05-24T18:13:14.962Z,19.83
2023-05-24T18:15:42.484Z,20.33
2023-05-24T18:18:10.041Z,24.20
2023-05-24T18:20:37.313Z,21.02
2023-05-24T18:23:04.533Z,20.38
2023-05-24T18:25:31.865Z,23.83
2023-05-24T18:27:59.224Z,21.92
2023-05-24T18:30:26.456Z,20.98
2023-05-24T18:33:05.544Z,21.77
2023-05-24T18:35:35.377Z,24.50
2023-05-24T18:38:03.664Z,23.70
2023-05-24T18:40:30.927Z,19.75
2023-05-24T18:42:58.012Z,23.65
2023-05-24T18:45:25.155Z,22.40
2023-05-24T18:47:54.314Z,21.98
2023-05-24T18:50:23.500Z,24.25
2023-05-24T18:52:50.822Z,22.30
2023-05-24T18:55:18.141Z,25.35
2023-05-24T18:57:45.385Z,25.25
2023-05-24T19:00:13.260Z,24.67
2023-05-24T19:02:41.115Z,22.00
2023-05-24T19:05:09.198Z,25.70
2023-05-24T19:07:37.140Z,25.05
2023-05-24T19:10:04.697Z,25.17
2023-05-24T19:12:32.115Z,26.52
2023-05-24T19:14:59.881Z,26.60
2023-05-24T19:17:27.185Z,23.17
2023-05-24T19:19:54.829Z,25.42
2023-05-24T19:22:22.165Z,22.85
2023-05-24T19:24:49.373Z,29.70
2023-05-24T19:27:16.577Z,22.23
2023-05-24T19:29:43.798Z,25.83
2023-05-24T19:32:11.849Z,25.20
2023-05-24T19:34:42.566Z,24.77
2023-05-24T19:37:10.190Z,26.08
2023-05-24T19:39:37.903Z,27.92
2023-05-24T19:42:05.288Z,26.30
2023-05-24T19:44:32.494Z,26.05
2023-05-24T19:46:59.682Z,29.23
2023-05-24T19:49:26.950Z,24.15
2023-05-24T19:51:54.168Z,27.95
2023-05-24T19:54:21.746Z,25.25
2023-05-24T19:56:50.925Z,24.60
2023-05-24T19:59:18.821Z,27.13
2023-05-24T20:01:46.060Z,26.95
2023-05-24T20:04:13.611Z,26.27
2023-05-24T20:06:40.981Z,31.20
2023-05-24T20:09:08.900Z,27.02
2023-05-24T20:11:36.121Z,28.33
2023-05-24T20:14:03.605Z,26.73
2023-05-24T20:16:31.646Z,27.08
2023-05-24T20:18:58.820Z,23.23
2023-05-24T20:21:26.079Z,24.00
2023-05-24T20:23:58.677Z,24.33
2023-05-24T20:26:26.634Z,23.13
2023-05-24T20:28:53.929Z,22.00
2023-05-24T20:31:21.158Z,27.38
2023-05-24T20:33:51.683Z,23.45
2023-05-24T20:38:46.022Z,25.50
2023-05-24T20:41:13.096Z,30.67
2023-05-24T20:43:40.260Z,26.42
2023-05-24T20:46:07.476Z,23.10
2023-05-24T20:48:34.946Z,23.85
2023-05-24T20:51:02.272Z,28.85
2023-05-24T20:53:29.561Z,29.00
2023-05-24T20:55:57.512Z,24.95
2023-05-24T20:58:24.927Z,25.15
2023-05-24T21:00:52.312Z,27.77
2023-05-24T21:03:19.843Z,27.02
2023-05-24T21:05:47.271Z,26.40
2023-05-24T21:08:14.555Z,23.90
2023-05-24T21:10:41.718Z,25.55
2023-05-24T21:13:09.024Z,24.63
2023-05-24T21:15:36.355Z,23.10
2023-05-24T21:18:04.164Z,28.38
2023-05-24T21:20:31.584Z,24.67
2023-05-24T21:22:58.888Z,25.90
2023-05-24T21:25:26.112Z,25.92
2023-05-24T21:27:53.330Z,25.83
2023-05-24T21:30:20.698Z,23.08
2023-05-24T21:32:47.927Z,29.33
2023-05-24T21:35:15.197Z,24.20
2023-05-24T21:37:42.490Z,24.27
2023-05-24T21:40:10.152Z,24.45
2023-05-24T21:42:37.538Z,26.20
2023-05-24T21:45:05.039Z,26.55
2023-05-24T21:47:33.344Z,24.67
2023-05-24T21:50:00.656Z,31.20
2023-05-24T21:52:27.998Z,22.27
2023-05-24T21:54:55.692Z,25.13
2023-05-24T21:57:25.518Z,27.65
2023-05-24T21:59:53.509Z,25.90
2023-05-24T22:02:21.826Z,22.08
2023-05-24T22:04:49.302Z,26.95
2023-05-24T22:07:16.434Z,23.42
2023-05-24T22:09:43.720Z,23.02
2023-05-24T22:12:11.253Z,24.08
2023-05-24T22:14:38.501Z,23.10
2023-05-24T22:17:05.907Z,23.25
2023-05-24T22:22:03.408Z,24.45
2023-05-24T22:24:31.084Z,25.95
2023-05-24T22:26:58.317Z,22.73
2023-05-24T22:29:25.501Z,23.92
2023-05-24T22:31:52.825Z,22.48
2023-05-24T22:34:27.631Z,26.98
2023-05-24T22:36:55.375Z,21.05
2023-05-24T22:39:22.583Z,22.85
2023-05-24T22:41:51.844Z,23.15
2023-05-24T22:44:19.344Z,23.65
2023-05-24T22:46:49.962Z,22.05
2023-05-24T22:49:19.792Z,25.02
2023-05-24T22:51:48.558Z,21.35
2023-05-24T22:54:15.966Z,24.38
2023-05-24T22:56:43.945Z,19.15
2023-05-24T22:59:11.472Z,21.90
2023-05-24T23:01:39.161Z,23.25
2023-05-24T23:04:19.540Z,22.25
2023-05-24T23:06:47.748Z,20.63
2023-05-24T23:09:15.000Z,23.38
2023-05-24T23:11:43.135Z,23.35
2023-05-24T23:14:11.545Z,21.30
2023-05-24T23:16:46.159Z,22.50
2023-05-24T23:19:18.723Z,22.90
2023-05-24T23:21:46.403Z,25.52
2023-05-24T23:24:16.098Z,26.77
2023-05-24T23:26:43.874Z,20.02
2023-05-24T23:29:11.064Z,23.67
2023-05-24T23:31:38.548Z,23.30
2023-05-24T23:34:05.981Z,25.23
2023-05-24T23:36:33.745Z,23.55
2023-05-24T23:39:00.969Z,26.58
2023-05-24T23:41:28.143Z,22.92
2023-05-24T23:43:55.570Z,22.33
2023-05-24T23:46:22.770Z,18.77
2023-05-24T23:48:50.025Z,20.67
2023-05-24T23:51:17.267Z,20.77
2023-05-24T23:53:44.403Z,22.23
2023-05-24T23:56:11.943Z,25.95
2023-05-24T23:58:39.030Z,19.35
